ADDS METAR Data INFO
IDs: Format: Raw Decoded Include TAF

Data at: 0601 UTC 25 Jun 2018

KTRL 250553Z AUTO 17015G20KT 10SM CLR 28/22 A2987 RMK AO2 SLP108 6//// T02830222 10344 20283 403670267 50002 PNO $
KTRL 250453Z AUTO 17016G20KT 10SM CLR 29/22 A2989 RMK AO2 SLP112 T02940217 PNO $
KTRL 250353Z AUTO 15009KT 10SM CLR 30/21 A2988 RMK AO2 SLP111 T03000211 PNO $
KTRL 250253Z AUTO 14010KT 10SM CLR 31/21 A2987 RMK AO2 SLP106 6//// T03060206 53002 PNO $
KTRL 250153Z AUTO 15010KT 10SM CLR 32/20 A2985 RMK AO2 SLP101 T03170200 PNO $
KTRL 250053Z AUTO 14013KT 10SM CLR 34/21 A2987 RMK AO2 SLP108 T03390206 PNO $
KTRL 242353Z AUTO 13011G19KT 10SM FEW065 35/20 A2986 RMK AO2 SLP104 6//// T03500200 10367 20339 53014 PNO $
KTRL 242253Z AUTO 16012KT 10SM FEW060 35/19 A2986 RMK AO2 PK WND 17029/2210 SLP102 T03500189 PNO $
KTRL 242153Z AUTO 18021G27KT 10SM CLR 36/19 A2982 RMK AO2 PK WND 15029/2102 SLP091 T03610194 PNO $
KTRL 242053Z AUTO 18018G26KT 10SM FEW050 36/20 A2982 RMK AO2 PK WND 16029/2033 SLP089 6//// T03610200 56021 PNO $
KTRL 241953Z AUTO 17021G27KT 10SM FEW049 36/21 A2983 RMK AO2 PK WND 15027/1942 SLP093 T03560206 PNO $
KTRL 241853Z AUTO 16016G25KT 10SM SCT047 34/21 A2987 RMK AO2 SLP104 T03440206 PNO $
KTRL 241753Z AUTO 18017G23KT 10SM SCT045 34/20 A2988 RMK AO2 PK WND 15027/1718 SLP110 6//// T03390200 10339 20272 56013 PNO $
KTRL 241653Z AUTO 17017G24KT 10SM FEW039 33/21 A2989 RMK AO2 SLP113 T03280206 PNO $
KTRL 241553Z AUTO 19015KT 10SM CLR 31/21 A2990 RMK AO2 SLP116 T03110211 PNO $
KTRL 241453Z AUTO 18007KT 10SM SCT029 BKN043 OVC050 28/22 A2992 RMK AO2 SLP124 6//// T02830217 51030 PNO $
KTRL 241353Z AUTO 19007KT 10SM SCT029 28/22 A2990 RMK AO2 SLP117 T02780217 PNO $
KTRL 241253Z AUTO 19010KT 10SM SCT029 OVC039 27/22 A2986 RMK AO2 SLP103 T02720217 PNO $
KTRL 241208Z AUTO 19010G18KT 10SM SCT025 BKN030 OVC038 27/22 A2984 RMK AO2 T02720217 PNO $
KTRL 241153Z AUTO 20009G17KT 10SM BKN025 BKN030 OVC037 27/22 A2983 RMK AO2 SLP094 6//// 7//// T02720217 10294 20267 53036 PNO $
KTRL 241053Z AUTO 17014G21KT 10SM BKN026 27/22 A2978 RMK AO2 PK WND 16026/0958 SLP076 T02720217 PNO $
KTRL 241022Z AUTO 17014KT 10SM BKN026 BKN032 27/22 A2976 RMK AO2 PK WND 16026/0958 T02720217 PNO $
KTRL 240953Z AUTO 18017G25KT 10SM CLR 27/22 A2975 RMK AO2 PK WND 17032/0922 SLP065 T02720217 PNO $
KTRL 240853Z AUTO 16020G26KT 10SM CLR 27/22 A2973 RMK AO2 PK WND 16031/0756 SLP058 6//// T02720217 58035 PNO $
KTRL 240753Z AUTO 17022G29KT 10SM CLR 28/22 A2977 RMK AO2 PK WND 17029/0753 PRESFR SLP072 T02780217 PNO $
KTRL 240653Z AUTO 20010KT 10SM CLR 28/22 A2984 RMK AO2 SLP097 T02830222 PNO $
KTRL 240553Z AUTO 17013KT 10SM CLR 29/22 A2983 RMK AO2 SLP093 6//// T02940222 10339 20289 403560267 51017 PNO $
KTRL 240453Z AUTO 17009KT 10SM CLR 29/22 A2982 RMK AO2 SLP091 T02890222 PNO $
KTRL 240353Z AUTO 14007KT 10SM CLR 29/21 A2980 RMK AO2 SLP084 T02940211 PNO $
KTRL 240253Z AUTO 13007KT 10SM CLR 31/21 A2978 RMK AO2 SLP075 6//// T03060206 53005 PNO $
KTRL 240153Z AUTO 14006KT 10SM CLR 32/21 A2976 RMK AO2 SLP070 T03170206 PNO $
KTRL 240053Z AUTO 15010KT 10SM CLR 33/20 A2977 RMK AO2 SLP071 T03280200 PNO $
KTRL 232353Z AUTO 16016KT 10SM CLR 34/19 A2976 RMK AO2 SLP070 6//// T03390194 10356 20322 58007 PNO $
KTRL 232253Z AUTO 17013G21KT 10SM CLR 34/19 A2977 RMK AO2 RAE2156B21E49 SLP072 T03440194 PNO $
KTRL 232153Z AUTO 17017KT 10SM -RA CLR 35/20 A2978 RMK AO2 RAB13 SLP076 T03500200 PNO $
KTRL 232053Z AUTO 18016G22KT 10SM CLR 35/21 A2978 RMK AO2 SLP077 T03500211 56025
KTRL 231953Z AUTO 16012G21KT 10SM FEW042 34/21 A2980 RMK AO2 SLP083 T03390211
KTRL 231853Z AUTO 16011KT 10SM SCT036 33/22 A2982 RMK AO2 SLP092 T03330222